^^
Meteo Knjazevac Station Historical Data
Daily Summary for January 24, 2021 Units:  Metric    English   Both
Daily Weekly Monthly Yearly Custom
  High: Low: Average:
Temperature: 30.9 °C 17.1 °C 21.9 °C
Dew Point: 18.8 °C 11.6 °C 15.6 °C
Humidity: 84% 44% 69%
Wind Speed: 8km/h 0km/h 3.2km/h
Wind Gust: 19.3km/h - -
Wind- - SW
Pressure: 1018.5 hPa 1015.8 hPa -
Precipitation: 0 mm    
Historical Graphs
 
 
Tabular Data for January 24, 2021
Time Temperature Dew Point Pressure Wind Wind Speed Wind Gust Humidity Rainfall Rate (Hourly) solar Conditions
00:00 18.9 °C 12.2 °C 1016.5 hPa WNW 1.6 km/h 3.2 km/h 65% 0 mm 0 W/m2
00:10 18.7 °C 12.4 °C 1016.5 hPa Calm   3.2 km/h 67% 0 mm 0 W/m2
00:20 18.6 °C 12.3 °C 1016.5 hPa East 1.6 km/h 4.8 km/h 67% 0 mm 0 W/m2
00:30 18.4 °C 12.4 °C 1016.5 hPa North 1.6 km/h 4.8 km/h 68% 0 mm 0 W/m2
00:40 18.2 °C 12.4 °C 1016.5 hPa Calm   3.2 km/h 69% 0 mm 0 W/m2
00:50 18.1 °C 12.1 °C 1016.5 hPa SSE 1.6 km/h 4.8 km/h 68% 0 mm 0 W/m2
01:00 17.8 °C 12 °C 1016.5 hPa Calm   3.2 km/h 69% 0 mm 0 W/m2
01:10 17.6 °C 11.8 °C 1016.5 hPa NNE 3.2 km/h 4.8 km/h 69% 0 mm 0 W/m2
01:20 17.5 °C 11.9 °C 1016.5 hPa Calm   3.2 km/h 70% 0 mm 0 W/m2
01:30 17.3 °C 11.8 °C 1016.8 hPa WSW 3.2 km/h 4.8 km/h 70% 0 mm 0 W/m2
01:40 17.1 °C 11.6 °C 1016.8 hPa WSW 3.2 km/h 6.4 km/h 70% 0 mm 0 W/m2
01:50 17.1 °C 11.6 °C 1016.8 hPa WNW 3.2 km/h 9.7 km/h 70% 0 mm 0 W/m2
02:00 17.1 °C 12 °C 1016.8 hPa West 1.6 km/h 4.8 km/h 72% 0 mm 0 W/m2
02:10 17.2 °C 11.7 °C 1016.8 hPa NNW 1.6 km/h 3.2 km/h 70% 0 mm 0 W/m2
02:20 17.2 °C 11.7 °C 1016.8 hPa North 1.6 km/h 3.2 km/h 70% 0 mm 0 W/m2
02:30 17.3 °C 11.8 °C 1016.8 hPa NNE 8 km/h 11.3 km/h 70% 0 mm 0 W/m2
02:40 17.2 °C 11.7 °C 1017.2 hPa NW 4.8 km/h 11.3 km/h 70% 0 mm 0 W/m2
02:50 17.4 °C 11.9 °C 1017.2 hPa WNW 3.2 km/h 11.3 km/h 70% 0 mm 0 W/m2
03:00 17.7 °C 12.6 °C 1017.2 hPa WNW 3.2 km/h 8 km/h 72% 0 mm 0 W/m2
03:10 17.9 °C 13 °C 1017.2 hPa WSW 3.2 km/h 9.7 km/h 73% 0 mm 0 W/m2
03:20 18.1 °C 14 °C 1017.2 hPa WSW 4.8 km/h 9.7 km/h 77% 0 mm 0 W/m2
03:30 18.3 °C 14.2 °C 1017.2 hPa WSW 3.2 km/h 8 km/h 77% 0 mm 0 W/m2
03:40 18.3 °C 13.8 °C 1017.2 hPa WSW 1.6 km/h 4.8 km/h 75% 0 mm 0 W/m2
03:50 18.3 °C 14 °C 1017.2 hPa SSW 4.8 km/h 9.7 km/h 76% 0 mm 0 W/m2
04:00 18.4 °C 14.5 °C 1017.2 hPa SSW 3.2 km/h 9.7 km/h 78% 0 mm 0 W/m2
04:10 18.6 °C 14.9 °C 1017.2 hPa SSE 3.2 km/h 8 km/h 79% 0 mm 0 W/m2
04:20 18.8 °C 15.3 °C 1017.2 hPa SE 1.6 km/h 8 km/h 80% 0 mm 0 W/m2
04:30 18.8 °C 15.3 °C 1017.2 hPa SSW 3.2 km/h 8 km/h 80% 0 mm 0 W/m2
04:40 18.9 °C 15.4 °C 1017.2 hPa South 3.2 km/h 8 km/h 80% 0 mm 0 W/m2
04:50 18.9 °C 15.2 °C 1017.2 hPa SW 3.2 km/h 6.4 km/h 79% 0 mm 0 W/m2
05:00 18.6 °C 14.9 °C 1017.2 hPa WSW 3.2 km/h 8 km/h 79% 0 mm 0 W/m2
05:10 18.5 °C 15 °C 1017.5 hPa West 3.2 km/h 8 km/h 80% 0 mm 0 W/m2
05:20 18.5 °C 15.2 °C 1017.5 hPa WSW 4.8 km/h 9.7 km/h 81% 0 mm 0 W/m2
05:30 18.5 °C 15.2 °C 1017.5 hPa WSW 3.2 km/h 9.7 km/h 81% 0 mm 0 W/m2
05:40 18.5 °C 15.6 °C 1017.5 hPa WSW 8 km/h 19.3 km/h 83% 0 mm 0 W/m2
05:50 18.4 °C 15.4 °C 1017.8 hPa SW 4.8 km/h 12.9 km/h 83% 0 mm 4 W/m2
06:00 18.4 °C 15.4 °C 1017.8 hPa SW 4.8 km/h 11.3 km/h 83% 0 mm 11 W/m2
06:10 18.3 °C 15.4 °C 1017.8 hPa WSW 3.2 km/h 8 km/h 83% 0 mm 20 W/m2
06:20 18.2 °C 15.3 °C 1018.2 hPa SW 4.8 km/h 11.3 km/h 83% 0 mm 32 W/m2
06:30 18.2 °C 15.4 °C 1018.2 hPa WSW 4.8 km/h 12.9 km/h 84% 0 mm 46 W/m2
06:40 18.2 °C 15.3 °C 1018.2 hPa SW 3.2 km/h 9.7 km/h 83% 0 mm 63 W/m2
06:50 18.3 °C 15.4 °C 1018.2 hPa Calm   9.7 km/h 83% 0 mm 81 W/m2
07:00 18.4 °C 15.4 °C 1018.2 hPa Calm   3.2 km/h 83% 0 mm 102 W/m2
07:10 18.4 °C 15.5 °C 1018.5 hPa Calm   3.2 km/h 83% 0 mm 123 W/m2
07:20 18.6 °C 15.4 °C 1018.5 hPa North 1.6 km/h 3.2 km/h 82% 0 mm 146 W/m2
07:30 18.7 °C 15.4 °C 1018.5 hPa Calm   6.4 km/h 81% 0 mm 172 W/m2
07:40 18.9 °C 15.6 °C 1018.5 hPa Calm   4.8 km/h 81% 0 mm 202 W/m2
07:50 19.1 °C 15.5 °C 1018.5 hPa Calm   6.4 km/h 80% 0 mm 234 W/m2
08:00 19.3 °C 15.8 °C 1018.5 hPa North 1.6 km/h 4.8 km/h 80% 0 mm 266 W/m2
08:10 19.5 °C 15.9 °C 1018.5 hPa SSW 1.6 km/h 3.2 km/h 80% 0 mm 296 W/m2
08:20 19.8 °C 16.1 °C 1018.5 hPa SE 1.6 km/h 4.8 km/h 79% 0 mm 329 W/m2
08:30 20.1 °C 16.1 °C 1018.5 hPa WSW 1.6 km/h 4.8 km/h 78% 0 mm 358 W/m2
08:40 20.5 °C 16.3 °C 1018.5 hPa Calm   8 km/h 77% 0 mm 380 W/m2
08:50 21.1 °C 16.7 °C 1018.5 hPa WSW 3.2 km/h 8 km/h 76% 0 mm 408 W/m2
09:00 21.7 °C 16.9 °C 1018.5 hPa Calm   4.8 km/h 74% 0 mm 439 W/m2
09:10 22.3 °C 17.2 °C 1018.5 hPa South 3.2 km/h 8 km/h 73% 0 mm 483 W/m2
09:20 22.6 °C 17.3 °C 1018.5 hPa NW 1.6 km/h 9.7 km/h 72% 0 mm 506 W/m2
09:30 23.1 °C 17.3 °C 1018.5 hPa NNW 1.6 km/h 9.7 km/h 70% 0 mm 326 W/m2
09:40 23.4 °C 17.4 °C 1018.5 hPa NW 3.2 km/h 8 km/h 69% 0 mm 386 W/m2
09:50 23.7 °C 17.4 °C 1018.5 hPa WNW 3.2 km/h 9.7 km/h 68% 0 mm 479 W/m2
10:00 24.3 °C 18 °C 1018.5 hPa WNW 3.2 km/h 9.7 km/h 68% 0 mm 577 W/m2
10:10 24.6 °C 17.8 °C 1018.5 hPa SW 4.8 km/h 12.9 km/h 66% 0 mm 652 W/m2
10:20 24.8 °C 17.8 °C 1018.5 hPa West 3.2 km/h 14.5 km/h 65% 0 mm 705 W/m2
10:30 25.1 °C 18.1 °C 1018.2 hPa SW 8 km/h 11.3 km/h 65% 0 mm 729 W/m2
10:40 25.4 °C 17.8 °C 1018.2 hPa SW 4.8 km/h 14.5 km/h 63% 0 mm 743 W/m2
10:50 25.7 °C 17.3 °C 1018.2 hPa WSW 8 km/h 14.5 km/h 60% 0 mm 311 W/m2
11:00 25.9 °C 17.6 °C 1018.2 hPa SW 8 km/h 16.1 km/h 60% 0 mm 435 W/m2
11:10 26.1 °C 18 °C 1017.8 hPa ESE 1.6 km/h 11.3 km/h 61% 0 mm 790 W/m2
11:20 26.5 °C 17.8 °C 1017.8 hPa SSW 8 km/h 12.9 km/h 59% 0 mm 321 W/m2
11:30 26.8 °C 17.8 °C 1017.8 hPa SSW 4.8 km/h 12.9 km/h 58% 0 mm 808 W/m2
11:40 26.9 °C 17.9 °C 1017.8 hPa SW 3.2 km/h 14.5 km/h 58% 0 mm 823 W/m2
11:50 27.1 °C 18.1 °C 1017.8 hPa SSW 4.8 km/h 12.9 km/h 58% 0 mm 840 W/m2
12:00 27.4 °C 18.4 °C 1017.5 hPa SW 8 km/h 11.3 km/h 58% 0 mm 806 W/m2
12:10 27.5 °C 17.7 °C 1017.5 hPa SW 3.2 km/h 12.9 km/h 55% 0 mm 846 W/m2
12:20 27.6 °C 17.7 °C 1017.5 hPa SW 8 km/h 14.5 km/h 55% 0 mm 808 W/m2
12:30 27.9 °C 17.7 °C 1017.2 hPa SSW 3.2 km/h 14.5 km/h 54% 0 mm 865 W/m2
12:40 28.4 °C 18.2 °C 1017.2 hPa SW 4.8 km/h 11.3 km/h 54% 0 mm 864 W/m2
12:50 28.9 °C 18.1 °C 1017.2 hPa Calm   11.3 km/h 52% 0 mm 862 W/m2
13:00 29.1 °C 18.2 °C 1016.8 hPa NNE 3.2 km/h 9.7 km/h 52% 0 mm 859 W/m2
13:10 29.4 °C 18.8 °C 1016.8 hPa WSW 3.2 km/h 12.9 km/h 53% 0 mm 853 W/m2
13:20 29.6 °C 18.1 °C 1016.8 hPa SW 8 km/h 11.3 km/h 50% 0 mm 835 W/m2
13:30 29.7 °C 18.2 °C 1016.8 hPa WSW 3.2 km/h 8 km/h 50% 0 mm 810 W/m2
13:40 29.9 °C 18.1 °C 1016.8 hPa WSW 1.6 km/h 14.5 km/h 49% 0 mm 791 W/m2
13:50 30 °C 17.4 °C 1016.5 hPa SSW 3.2 km/h 11.3 km/h 47% 0 mm 793 W/m2
14:00 30.2 °C 18 °C 1016.5 hPa SW 3.2 km/h 11.3 km/h 48% 0 mm 761 W/m2
14:10 30.4 °C 17.8 °C 1016.1 hPa Calm   8 km/h 47% 0 mm 745 W/m2
14:20 30.7 °C 18.1 °C 1016.1 hPa West 3.2 km/h 9.7 km/h 47% 0 mm 730 W/m2
14:30 30.8 °C 17.1 °C 1016.1 hPa South 4.8 km/h 11.3 km/h 44% 0 mm 706 W/m2
14:40 30.8 °C 17.5 °C 1015.8 hPa West 4.8 km/h 9.7 km/h 45% 0 mm 682 W/m2
14:50 30.9 °C 17.2 °C 1015.8 hPa SW 3.2 km/h 9.7 km/h 44% 0 mm 667 W/m2
Knjazevac, Serbia
Compliments of Weather Underground - 2 mb